createdAt,value
2018-12-25T00:02:04.789Z,2.30
2018-12-25T00:07:27.086Z,1.70
2018-12-25T00:12:49.378Z,2.13
2018-12-25T00:18:11.677Z,2.30
2018-12-25T00:23:34.030Z,1.90
2018-12-25T00:28:56.212Z,2.27
2018-12-25T00:34:18.516Z,1.70
2018-12-25T00:39:40.827Z,2.30
2018-12-25T00:44:56.603Z,2.07
2018-12-25T00:50:18.919Z,2.10
2018-12-25T00:55:41.243Z,1.83
2018-12-25T01:01:03.580Z,2.50
2018-12-25T01:06:25.906Z,2.00
2018-12-25T01:11:48.215Z,2.43
2018-12-25T01:17:10.660Z,1.73
2018-12-25T01:22:32.955Z,2.30
2018-12-25T01:27:55.331Z,1.70
2018-12-25T01:33:17.648Z,2.57
2018-12-25T01:38:39.956Z,2.13
2018-12-25T01:43:55.619Z,2.13
2018-12-25T01:49:17.913Z,1.87
2018-12-25T01:54:40.227Z,1.60
2018-12-25T02:00:02.607Z,1.90
2018-12-25T02:05:24.861Z,1.50
2018-12-25T02:10:47.133Z,1.67
2018-12-25T02:16:09.571Z,1.80
2018-12-25T02:21:31.880Z,2.03
2018-12-25T02:26:54.156Z,1.70
2018-12-25T02:32:16.451Z,2.13
2018-12-25T02:37:38.766Z,1.70
2018-12-25T02:42:54.790Z,1.73
2018-12-25T02:48:17.123Z,2.47
2018-12-25T02:53:47.063Z,2.27
2018-12-25T02:59:09.402Z,1.93
2018-12-25T03:04:31.679Z,2.00
2018-12-25T03:09:53.984Z,2.30
2018-12-25T03:15:16.297Z,1.70
2018-12-25T03:20:38.617Z,1.53
2018-12-25T03:25:41.446Z,2.20
2018-12-25T03:31:03.746Z,1.70
2018-12-25T03:36:26.189Z,2.30
2018-12-25T03:41:48.604Z,2.07
2018-12-25T03:47:04.523Z,2.03
2018-12-25T03:52:26.827Z,2.17
2018-12-25T03:57:49.026Z,1.70
2018-12-25T04:03:11.334Z,2.10
2018-12-25T04:08:33.646Z,1.93
2018-12-25T04:13:55.952Z,1.70
2018-12-25T04:19:18.270Z,2.20
2018-12-25T04:24:41.387Z,2.00
2018-12-25T04:30:04.047Z,2.10
2018-12-25T04:35:26.345Z,2.10
2018-12-25T04:40:48.623Z,2.47
2018-12-25T04:46:04.151Z,2.27
2018-12-25T04:51:26.459Z,2.30
2018-12-25T04:56:48.727Z,2.40
2018-12-25T05:02:11.058Z,1.90
2018-12-25T05:07:33.270Z,1.97
2018-12-25T05:12:55.526Z,2.37
2018-12-25T05:18:17.867Z,2.77
2018-12-25T05:23:40.182Z,2.13
2018-12-25T05:29:02.486Z,2.87
2018-12-25T05:34:05.333Z,2.10
2018-12-25T05:39:27.650Z,2.57
2018-12-25T05:44:43.557Z,2.30
2018-12-25T05:50:06.033Z,2.33
2018-12-25T05:55:28.371Z,2.43
2018-12-25T06:00:50.684Z,2.47
2018-12-25T06:06:13.389Z,2.17
2018-12-25T06:11:35.725Z,2.80
2018-12-25T06:16:58.052Z,2.07
2018-12-25T06:22:20.368Z,2.60
2018-12-25T06:27:42.701Z,2.53
2018-12-25T06:33:05.108Z,2.50
2018-12-25T06:38:27.539Z,2.40
2018-12-25T06:43:30.552Z,2.00
2018-12-25T06:48:52.873Z,2.33
2018-12-25T06:54:15.170Z,2.30
2018-12-25T06:59:37.473Z,1.97
2018-12-25T07:05:00.573Z,1.90
2018-12-25T07:10:03.574Z,2.10
2018-12-25T07:15:33.142Z,2.40
2018-12-25T07:20:50.360Z,1.63
2018-12-25T07:26:12.655Z,2.27
2018-12-25T07:31:34.967Z,2.30
2018-12-25T07:36:57.417Z,1.93
2018-12-25T07:42:19.774Z,2.00
2018-12-25T07:47:35.403Z,2.20
2018-12-25T07:52:57.781Z,2.33
2018-12-25T07:58:20.070Z,2.00
2018-12-25T08:03:42.371Z,1.80
2018-12-25T08:09:06.484Z,1.70
2018-12-25T08:14:28.785Z,2.10
2018-12-25T08:19:51.095Z,2.20
2018-12-25T08:25:13.407Z,2.07
2018-12-25T08:30:35.707Z,2.10
2018-12-25T08:35:57.897Z,2.27
2018-12-25T08:41:00.755Z,2.10
2018-12-25T08:46:17.147Z,2.53
2018-12-25T08:52:00.852Z,2.03
2018-12-25T08:57:23.192Z,2.30
2018-12-25T09:02:45.481Z,2.20
2018-12-25T09:08:07.790Z,2.50
2018-12-25T09:13:30.111Z,2.53
2018-12-25T09:18:52.432Z,2.20
2018-12-25T09:24:14.832Z,2.30
2018-12-25T09:29:37.194Z,2.10
2018-12-25T09:34:59.365Z,2.20
2018-12-25T09:40:21.606Z,1.90
2018-12-25T09:45:36.899Z,1.90
2018-12-25T09:50:59.310Z,2.20
2018-12-25T09:56:21.854Z,1.97
2018-12-25T10:01:44.211Z,2.50
2018-12-25T10:07:06.521Z,1.90
2018-12-25T10:12:28.842Z,1.90
2018-12-25T10:17:51.152Z,1.10
2018-12-25T10:23:13.379Z,1.73
2018-12-25T10:28:35.699Z,1.50
2018-12-25T10:33:57.971Z,1.60
2018-12-25T10:39:20.387Z,1.43
2018-12-25T10:44:35.429Z,1.00
2018-12-25T10:49:57.740Z,1.20
2018-12-25T10:55:00.594Z,1.00
2018-12-25T11:00:22.891Z,1.13
2018-12-25T11:05:45.205Z,1.50
2018-12-25T11:11:07.507Z,1.57
2018-12-25T11:16:29.803Z,1.13
2018-12-25T11:21:52.119Z,0.90
2018-12-25T11:27:14.463Z,1.13
2018-12-25T11:32:36.776Z,0.90
2018-12-25T11:37:59.091Z,1.40
2018-12-25T11:43:14.831Z,1.20
2018-12-25T11:48:37.130Z,0.93
2018-12-25T11:53:52.984Z,1.53
2018-12-25T11:59:15.319Z,1.20
2018-12-25T12:04:37.634Z,0.93
2018-12-25T12:09:59.807Z,0.93
2018-12-25T12:15:22.138Z,1.03
2018-12-25T12:20:44.425Z,1.00
2018-12-25T12:26:06.762Z,1.10
2018-12-25T12:31:29.070Z,0.90
2018-12-25T12:36:51.409Z,1.00
2018-12-25T12:42:13.731Z,0.80
2018-12-25T12:47:36.124Z,0.90
2018-12-25T12:58:41.535Z,1.20
2018-12-25T13:04:03.836Z,0.90
2018-12-25T13:09:26.191Z,0.90
2018-12-25T13:14:48.605Z,1.83
2018-12-25T13:20:10.928Z,1.23
2018-12-25T13:25:33.280Z,1.30
2018-12-25T13:30:55.711Z,1.23
2018-12-25T13:36:18.124Z,1.33
2018-12-25T13:41:20.962Z,1.57
2018-12-25T13:46:37.570Z,1.20
2018-12-25T13:51:59.927Z,6.63
2018-12-25T13:57:22.586Z,1.50
2018-12-25T14:08:20.091Z,1.73
2018-12-25T14:13:42.503Z,1.40
2018-12-25T14:19:05.028Z,1.57
2018-12-25T14:24:27.797Z,1.30
2018-12-25T14:29:30.657Z,1.50
2018-12-25T14:46:11.927Z,1.93
2018-12-25T14:51:34.451Z,1.67
2018-12-25T14:56:57.036Z,1.43
2018-12-25T15:02:19.369Z,1.47
2018-12-25T15:07:43.405Z,1.47
2018-12-25T15:13:08.120Z,1.40
2018-12-25T15:18:30.455Z,1.43
2018-12-25T15:23:52.806Z,1.57
2018-12-25T15:29:15.100Z,1.10
2018-12-25T15:34:37.432Z,1.80
2018-12-25T15:40:00.093Z,1.60
2018-12-25T15:45:16.124Z,2.10
2018-12-25T15:51:00.088Z,2.50
2018-12-25T16:01:52.774Z,2.10
2018-12-25T16:06:55.609Z,2.80
2018-12-25T16:12:18.047Z,2.63
2018-12-25T16:17:40.486Z,2.90
2018-12-25T16:23:02.681Z,3.50
2018-12-25T16:28:25.037Z,2.83
2018-12-25T16:33:47.342Z,4.30
2018-12-25T16:39:09.641Z,3.47
2018-12-25T16:44:12.547Z,3.47
2018-12-25T16:49:34.896Z,3.43
2018-12-25T16:54:57.262Z,3.63
2018-12-25T17:00:19.552Z,3.30
2018-12-25T17:05:41.900Z,3.50
2018-12-25T17:11:04.178Z,4.17
2018-12-25T17:16:26.464Z,4.33
2018-12-25T17:21:48.739Z,3.27
2018-12-25T17:27:13.171Z,4.00
2018-12-25T17:32:35.487Z,3.93
2018-12-25T17:37:57.810Z,4.43
2018-12-25T17:43:13.346Z,4.97
2018-12-25T17:48:35.640Z,5.00
2018-12-25T17:53:57.979Z,4.30
2018-12-25T17:59:20.297Z,5.03
2018-12-25T18:04:42.613Z,5.90
2018-12-25T18:10:04.917Z,5.67
2018-12-25T18:15:29.685Z,6.60
2018-12-25T18:20:51.980Z,5.93
2018-12-25T18:26:14.292Z,7.10
2018-12-25T18:31:36.629Z,6.93
2018-12-25T18:36:58.959Z,7.07
2018-12-25T18:42:23.359Z,7.23
2018-12-25T18:47:38.517Z,7.67
2018-12-25T18:53:00.873Z,8.50
2018-12-25T18:58:23.222Z,7.47
2018-12-25T19:03:45.668Z,9.50
2018-12-25T19:08:48.552Z,8.53
2018-12-25T19:14:10.782Z,10.13
2018-12-25T19:19:33.208Z,9.90
2018-12-25T19:24:55.461Z,11.37
2018-12-25T19:30:20.212Z,11.03
2018-12-25T19:35:42.411Z,11.87
2018-12-25T19:41:04.907Z,14.50
2018-12-25T19:46:20.717Z,13.60
2018-12-25T19:51:43.059Z,13.93
2018-12-25T19:57:05.259Z,14.17
2018-12-25T20:02:28.706Z,14.20
2018-12-25T20:08:29.998Z,14.57
2018-12-25T20:14:27.684Z,14.87
2018-12-25T20:20:29.006Z,15.50
2018-12-25T20:26:21.054Z,14.37
2018-12-25T20:32:22.290Z,15.30
2018-12-25T20:44:23.440Z,14.87
2018-12-25T20:50:24.676Z,15.47
2018-12-25T20:56:25.898Z,15.67
2018-12-25T21:02:27.154Z,14.80
2018-12-25T21:08:28.396Z,14.80
2018-12-25T21:14:32.726Z,14.47
2018-12-25T21:20:33.980Z,15.00
2018-12-25T21:26:35.226Z,15.00
2018-12-25T21:31:57.519Z,14.20
2018-12-25T21:37:20.047Z,13.67
2018-12-25T21:42:42.350Z,13.23
2018-12-25T21:47:45.898Z,13.50
2018-12-25T21:52:49.001Z,13.37
2018-12-25T21:58:11.502Z,13.10
2018-12-25T22:03:33.934Z,13.27
2018-12-25T22:08:56.237Z,11.37
2018-12-25T22:13:59.139Z,11.50
2018-12-25T22:19:21.460Z,11.20
2018-12-25T22:24:24.291Z,12.33
2018-12-25T22:29:27.111Z,12.10
2018-12-25T22:34:49.448Z,11.30
2018-12-25T22:40:11.771Z,11.90
2018-12-25T22:45:27.656Z,11.10
2018-12-25T22:50:30.551Z,12.00
2018-12-25T22:55:35.885Z,10.93
2018-12-25T23:00:38.614Z,11.50
2018-12-25T23:05:41.464Z,11.00
2018-12-25T23:11:03.763Z,11.83
2018-12-25T23:16:26.436Z,11.43
2018-12-25T23:21:48.784Z,11.43
2018-12-25T23:27:11.096Z,10.70
2018-12-25T23:32:13.947Z,10.47
2018-12-25T23:37:16.773Z,11.23
2018-12-25T23:42:19.639Z,10.90
2018-12-25T23:47:36.109Z,11.50
2018-12-25T23:52:58.461Z,10.73
2018-12-25T23:58:20.759Z,11.90
